Time;durP1;ratioP1;P1;durP2;ratioP2;P2;SDS_P1;SDS_P2;PMS_P1;PMS_P2;Temp;Humidity;BMP_temperature;BMP_pressure;BME280_temperature;BME280_humidity;BME280_pressure;Samples;Min_cycle;Max_cycle;Signal;HPM_P1;HPM_P2
2022/12/15 00:39:58;;;;;;;65.60;28.77;;;;;;;;;;4987901;28;20053;-78
2022/12/15 00:42:24;;;;;;;;;;;;;;;;;;4992299;28;20037;-79
2022/12/15 00:44:50;;;;;;;64.38;26.38;;;;;;;;;;5002006;28;20339;-77
2022/12/15 00:47:16;;;;;;;56.97;26.83;;;;;;;;;;4990852;28;20030;-78
2022/12/15 01:22:44;;;;;;;62.17;27.25;;;;;;;;;;4990168;28;20087;-78
2022/12/15 01:25:10;;;;;;;56.10;25.63;;;;;;;;;;4993995;28;20023;-80
2022/12/15 01:27:36;;;;;;;62.90;28.00;;;;;;;;;;5003154;28;20029;-79
2022/12/15 01:30:03;;;;;;;65.65;27.77;;;;;;;;;;5001986;28;20026;-79
2022/12/15 01:32:29;;;;;;;60.53;28.10;;;;;;;;;;5014594;28;20033;-80
2022/12/15 01:34:55;;;;;;;56.92;27.23;;;;;;;;;;4997474;28;20030;-79
2022/12/15 01:37:21;;;;;;;55.92;26.75;;;;;;;;;;4997030;28;20179;-79
2022/12/15 01:42:32;;;;;;;57.08;27.52;;;;;;;;;;4993463;28;20119;-79
2022/12/15 01:45:17;;;;;;;57.83;25.30;;;;;;;;;;4997126;28;20058;-79
2022/12/15 01:47:43;;;;;;;54.92;26.10;;;;;;;;;;4995460;28;20030;-79
2022/12/15 01:50:13;;;;;;;51.75;24.08;;;;;;;;;;4997913;28;20026;-79
2022/12/15 01:52:39;;;;;;;51.45;25.25;;;;;;;;;;5001143;28;20026;-79
2022/12/15 01:55:09;;;;;;;52.35;25.45;;;;;;;;;;4999537;28;20045;-79
2022/12/15 01:57:37;;;;;;;48.97;23.70;;;;;;;;;;4996007;28;20027;-79
2022/12/15 02:00:06;;;;;;;55.55;25.42;;;;;;;;;;4995700;28;20105;-80
2022/12/15 02:02:33;;;;;;;57.25;27.63;;;;;;;;;;4982509;28;20086;-78
2022/12/15 02:05:00;;;;;;;50.40;24.27;;;;;;;;;;4995508;28;20030;-79
2022/12/15 02:07:26;;;;;;;53.25;24.98;;;;;;;;;;4998634;28;20040;-80
2022/12/15 02:09:54;;;;;;;59.22;26.00;;;;;;;;;;4995606;28;20407;-79
2022/12/15 02:12:37;;;;;;;57.83;26.13;;;;;;;;;;4995707;28;20455;-79
2022/12/15 02:15:03;;;;;;;51.45;24.45;;;;;;;;;;4999136;28;20041;-79
2022/12/15 02:17:40;;;;;;;56.00;25.60;;;;;;;;;;4995790;28;20030;-79
2022/12/15 02:20:19;;;;;;;46.13;24.23;;;;;;;;;;4995734;28;20033;-79
2022/12/15 02:22:45;;;;;;;57.13;23.45;;;;;;;;;;4992295;28;20515;-79
2022/12/15 02:25:11;;;;;;;52.20;23.65;;;;;;;;;;5000570;28;20041;-79
2022/12/15 02:27:58;;;;;;;53.50;24.48;;;;;;;;;;4995561;28;20113;-78
2022/12/15 02:30:25;;;;;;;53.88;24.05;;;;;;;;;;4997827;28;20034;-79
2022/12/15 02:32:53;;;;;;;55.38;24.08;;;;;;;;;;5004954;28;20026;-78
2022/12/15 02:35:31;;;;;;;50.35;22.50;;;;;;;;;;4997409;28;20415;-78
2022/12/15 02:37:57;;;;;;;57.80;23.95;;;;;;;;;;5004669;28;20033;-79
2022/12/15 02:40:23;;;;;;;56.03;23.85;;;;;;;;;;5011489;28;20041;-77
2022/12/15 02:42:51;;;;;;;50.83;24.17;;;;;;;;;;4998665;28;20109;-79
2022/12/15 02:45:25;;;;;;;52.45;22.67;;;;;;;;;;4983785;28;20432;-80
2022/12/15 02:47:57;;;;;;;49.00;23.83;;;;;;;;;;4993129;28;20121;-79
2022/12/15 02:50:39;;;;;;;52.30;22.58;;;;;;;;;;5007178;28;20194;-79
2022/12/15 02:53:26;;;;;;;59.83;22.17;;;;;;;;;;4995115;28;20027;-79
2022/12/15 02:56:09;;;;;;;48.67;22.52;;;;;;;;;;4995211;28;20042;-79
2022/12/15 02:58:41;;;;;;;48.28;23.30;;;;;;;;;;5000160;28;20029;-79
2022/12/15 03:01:30;;;;;;;51.35;22.65;;;;;;;;;;4986405;28;20026;-79
2022/12/15 03:04:00;;;;;;;55.05;23.73;;;;;;;;;;4993246;28;20134;-79
2022/12/15 03:06:26;;;;;;;54.30;24.23;;;;;;;;;;4995477;28;20026;-79
2022/12/15 03:08:52;;;;;;;51.90;23.33;;;;;;;;;;4991639;28;20116;-79
2022/12/15 03:11:18;;;;;;;48.67;22.92;;;;;;;;;;5010428;28;20436;-79
2022/12/15 03:13:46;;;;;;;59.40;23.98;;;;;;;;;;4993367;28;20045;-79
2022/12/15 03:16:15;;;;;;;55.33;22.50;;;;;;;;;;5003668;28;20443;-77
2022/12/15 03:18:43;;;;;;;56.88;23.85;;;;;;;;;;5005360;28;20113;-79
2022/12/15 03:21:10;;;;;;;54.05;24.88;;;;;;;;;;4994212;28;20023;-79
2022/12/15 03:23:36;;;;;;;54.55;23.23;;;;;;;;;;5007127;28;20161;-80
2022/12/15 03:26:02;;;;;;;55.50;23.23;;;;;;;;;;4995888;28;20042;-79
2022/12/15 03:28:28;;;;;;;49.28;23.00;;;;;;;;;;4995024;28;20034;-80
2022/12/15 03:30:55;;;;;;;48.53;22.40;;;;;;;;;;4995837;28;20391;-78
2022/12/15 03:33:21;;;;;;;53.90;24.23;;;;;;;;;;4994639;28;20115;-79
2022/12/15 03:35:47;;;;;;;53.00;23.38;;;;;;;;;;4985000;28;20026;-79
2022/12/15 03:38:14;;;;;;;52.08;24.63;;;;;;;;;;4994334;28;20113;-79
2022/12/15 03:40:40;;;;;;;52.05;23.17;;;;;;;;;;4997035;28;20022;-79
2022/12/15 03:43:06;;;;;;;50.72;23.08;;;;;;;;;;5004570;28;20113;-79
2022/12/15 03:45:32;;;;;;;55.15;22.80;;;;;;;;;;4995470;28;20085;-79
2022/12/15 03:47:58;;;;;;;56.05;22.67;;;;;;;;;;4995635;28;20452;-79
2022/12/15 03:50:27;;;;;;;45.35;20.05;;;;;;;;;;5014026;28;20042;-77
2022/12/15 03:52:58;;;;;;;50.22;22.63;;;;;;;;;;5010819;28;20026;-80
2022/12/15 03:55:24;;;;;;;54.10;22.33;;;;;;;;;;4993319;28;20034;-79
2022/12/15 03:57:51;;;;;;;55.67;23.27;;;;;;;;;;5002389;28;20336;-79
2022/12/15 04:00:18;;;;;;;53.80;21.13;;;;;;;;;;5000367;28;20161;-80
2022/12/15 04:02:45;;;;;;;47.50;22.25;;;;;;;;;;5004316;28;20023;-79
2022/12/15 04:05:15;;;;;;;50.22;22.80;;;;;;;;;;5000830;28;20053;-78
2022/12/15 04:07:41;;;;;;;54.83;23.30;;;;;;;;;;4999760;28;20030;-78
2022/12/15 04:10:07;;;;;;;53.53;23.25;;;;;;;;;;4997783;28;20041;-79
2022/12/15 04:12:33;;;;;;;56.25;21.80;;;;;;;;;;5000417;28;20044;-79
2022/12/15 04:14:59;;;;;;;53.83;22.50;;;;;;;;;;5002321;28;20038;-80
2022/12/15 04:17:25;;;;;;;46.25;22.67;;;;;;;;;;4998420;28;20458;-77
2022/12/15 04:20:09;;;;;;;51.17;22.20;;;;;;;;;;4997882;28;20034;-77
2022/12/15 04:22:43;;;;;;;53.20;24.02;;;;;;;;;;4997723;28;20110;-79
2022/12/15 05:34:08;;;;;;;59.95;25.50;;;;;;;;;;4988760;28;20352;-79
2022/12/15 05:42:39;;;;;;;56.70;24.38;;;;;;;;;;4989191;28;20064;-79
2022/12/15 05:45:05;;;;;;;51.80;23.00;;;;;;;;;;5001214;28;20022;-80
2022/12/15 05:47:32;;;;;;;47.42;23.25;;;;;;;;;;5003926;28;20038;-78
2022/12/15 05:49:58;;;;;;;57.60;25.02;;;;;;;;;;4999590;28;20034;-78
2022/12/15 05:52:24;;;;;;;55.20;23.88;;;;;;;;;;4988514;28;20117;-77
2022/12/15 05:54:52;;;;;;;54.35;23.80;;;;;;;;;;4988491;28;20026;-78
2022/12/15 05:57:21;;;;;;;56.40;24.73;;;;;;;;;;4991643;28;20032;-78
2022/12/15 05:59:47;;;;;;;58.47;23.83;;;;;;;;;;4991986;28;20042;-78
2022/12/15 06:02:13;;;;;;;56.75;22.95;;;;;;;;;;4992345;28;20023;-78
2022/12/15 06:04:39;;;;;;;50.22;22.75;;;;;;;;;;4987322;28;20026;-78
2022/12/15 06:07:05;;;;;;;56.88;24.08;;;;;;;;;;4988102;28;20039;-78
2022/12/15 06:09:31;;;;;;;49.55;22.42;;;;;;;;;;4987804;28;20101;-78
2022/12/15 06:11:57;;;;;;;53.83;23.45;;;;;;;;;;4995858;28;20042;-77
2022/12/15 06:14:23;;;;;;;50.38;23.48;;;;;;;;;;5003478;28;20109;-78
2022/12/15 06:16:49;;;;;;;54.88;24.27;;;;;;;;;;4989043;28;20095;-78
2022/12/15 06:19:18;;;;;;;54.42;24.08;;;;;;;;;;5000325;28;20120;-79
2022/12/15 06:21:44;;;;;;;61.17;25.95;;;;;;;;;;5003828;28;20085;-78
2022/12/15 06:24:13;;;;;;;63.15;23.45;;;;;;;;;;5004385;28;20030;-77
2022/12/15 06:26:39;;;;;;;52.80;24.20;;;;;;;;;;4984516;28;20022;-78
2022/12/15 06:29:07;;;;;;;58.15;24.70;;;;;;;;;;4985966;28;20117;-77
2022/12/15 06:31:36;;;;;;;57.72;23.25;;;;;;;;;;5001423;28;20039;-78
2022/12/15 06:34:06;;;;;;;50.40;22.05;;;;;;;;;;4988045;28;20034;-78
2022/12/15 06:36:34;;;;;;;52.55;22.50;;;;;;;;;;4999139;28;20041;-78
2022/12/15 06:39:03;;;;;;;50.05;22.70;;;;;;;;;;4999937;28;20030;-78
2022/12/15 06:41:30;;;;;;;51.67;22.40;;;;;;;;;;5001444;28;20026;-78
2022/12/15 06:43:56;;;;;;;44.63;21.55;;;;;;;;;;4998379;28;20181;-77
2022/12/15 06:46:23;;;;;;;59.20;23.58;;;;;;;;;;4985234;28;20034;-79
2022/12/15 06:48:49;;;;;;;50.80;23.52;;;;;;;;;;4999444;28;20038;-77
2022/12/15 06:51:15;;;;;;;51.80;22.02;;;;;;;;;;4989273;28;20039;-77
2022/12/15 06:53:47;;;;;;;53.92;23.80;;;;;;;;;;4988695;28;20038;-78
2022/12/15 06:56:17;;;;;;;51.97;22.95;;;;;;;;;;5001863;28;20041;-78
2022/12/15 06:58:43;;;;;;;52.15;24.33;;;;;;;;;;4987147;28;20030;-78
2022/12/15 07:01:10;;;;;;;52.90;24.42;;;;;;;;;;4987865;28;20088;-78
2022/12/15 07:03:37;;;;;;;52.88;23.10;;;;;;;;;;5002773;28;20030;-77
2022/12/15 07:06:07;;;;;;;57.22;23.65;;;;;;;;;;4988056;28;20026;-77
2022/12/15 07:08:33;;;;;;;56.45;23.92;;;;;;;;;;4983940;28;20042;-77
2022/12/15 07:11:04;;;;;;;55.70;24.33;;;;;;;;;;4999350;28;20137;-78
2022/12/15 07:13:30;;;;;;;54.63;24.60;;;;;;;;;;4992498;28;20125;-80
2022/12/15 07:15:59;;;;;;;59.13;25.80;;;;;;;;;;5001134;28;20034;-79
2022/12/15 07:18:26;;;;;;;75.55;29.80;;;;;;;;;;4998177;28;20447;-80
2022/12/15 07:20:52;;;;;;;77.35;31.10;;;;;;;;;;5002998;28;20037;-80
2022/12/15 07:23:18;;;;;;;79.95;32.85;;;;;;;;;;4992559;28;20114;-80
2022/12/15 07:25:44;;;;;;;76.63;33.30;;;;;;;;;;4996491;28;20046;-80
2022/12/15 07:28:10;;;;;;;62.97;26.60;;;;;;;;;;4997539;28;20049;-79
2022/12/15 07:30:37;;;;;;;63.33;26.98;;;;;;;;;;4994969;28;20113;-79
2022/12/15 07:33:03;;;;;;;54.90;25.55;;;;;;;;;;4998404;28;20046;-79
2022/12/15 07:35:29;;;;;;;66.30;27.55;;;;;;;;;;5001496;28;20022;-79
2022/12/15 07:37:57;;;;;;;64.80;25.20;;;;;;;;;;4998987;28;20049;-78
2022/12/15 07:40:24;;;;;;;60.22;26.63;;;;;;;;;;4990953;28;20026;-79
2022/12/15 07:42:50;;;;;;;68.15;27.13;;;;;;;;;;4998551;28;20023;-79
2022/12/15 07:45:16;;;;;;;71.60;29.00;;;;;;;;;;5006063;28;20065;-78
2022/12/15 07:47:42;;;;;;;57.50;26.48;;;;;;;;;;5005497;28;20593;-79
2022/12/15 07:50:08;;;;;;;65.55;28.77;;;;;;;;;;5000084;28;20038;-78
2022/12/15 07:52:34;;;;;;;68.03;27.70;;;;;;;;;;5003562;28;20034;-78
2022/12/15 07:55:00;;;;;;;67.85;29.00;;;;;;;;;;5007445;28;20038;-79
2022/12/15 07:57:26;;;;;;;65.97;29.00;;;;;;;;;;4999017;28;20022;-80
2022/12/15 07:59:58;;;;;;;73.30;33.65;;;;;;;;;;5004104;28;20023;-78
2022/12/15 08:02:24;;;;;;;85.00;36.88;;;;;;;;;;4998760;28;20359;-79
2022/12/15 08:04:50;;;;;;;66.22;30.90;;;;;;;;;;5000452;28;20026;-79
2022/12/15 08:07:18;;;;;;;68.32;29.58;;;;;;;;;;5001459;28;20037;-79
2022/12/15 08:09:47;;;;;;;66.97;29.48;;;;;;;;;;4997709;28;20030;-79
2022/12/15 08:12:13;;;;;;;66.20;28.90;;;;;;;;;;5010800;28;20122;-79
2022/12/15 08:14:39;;;;;;;67.88;29.33;;;;;;;;;;4999363;28;20049;-78
2022/12/15 08:17:05;;;;;;;62.87;28.67;;;;;;;;;;5001355;28;20371;-80
2022/12/15 08:19:31;;;;;;;70.60;32.40;;;;;;;;;;4998557;28;20329;-79
2022/12/15 08:21:59;;;;;;;74.80;31.80;;;;;;;;;;4998188;28;20062;-79
2022/12/15 08:24:25;;;;;;;76.78;33.65;;;;;;;;;;5000343;28;20026;-79
2022/12/15 08:26:54;;;;;;;83.70;34.30;;;;;;;;;;5006443;28;20053;-79
2022/12/15 08:29:20;;;;;;;80.05;34.28;;;;;;;;;;4994617;28;20042;-79
2022/12/15 08:31:46;;;;;;;76.55;33.78;;;;;;;;;;5001028;28;20054;-79
2022/12/15 08:34:14;;;;;;;72.60;32.03;;;;;;;;;;5011355;28;20042;-79
2022/12/15 08:36:41;;;;;;;80.17;34.73;;;;;;;;;;5002264;28;20064;-79
2022/12/15 08:39:09;;;;;;;78.10;34.67;;;;;;;;;;4998169;28;20329;-80
2022/12/15 08:41:35;;;;;;;77.78;35.33;;;;;;;;;;5002700;28;20277;-79
2022/12/15 08:44:01;;;;;;;84.07;36.72;;;;;;;;;;5000620;28;20114;-80
2022/12/15 08:46:32;;;;;;;75.83;35.03;;;;;;;;;;4998297;28;20018;-79
2022/12/15 08:48:58;;;;;;;84.75;37.97;;;;;;;;;;5000744;28;20614;-78
2022/12/15 08:51:26;;;;;;;79.40;34.37;;;;;;;;;;4998207;28;20022;-78
2022/12/15 08:53:53;;;;;;;82.18;34.95;;;;;;;;;;4998003;28;20272;-79
2022/12/15 08:56:21;;;;;;;76.80;35.27;;;;;;;;;;5013777;28;20161;-79
2022/12/15 08:58:47;;;;;;;76.67;33.90;;;;;;;;;;4997615;28;20297;-79
2022/12/15 09:01:19;;;;;;;79.07;35.53;;;;;;;;;;4998010;28;20264;-79
2022/12/15 09:03:45;;;;;;;82.97;37.63;;;;;;;;;;4997938;28;20265;-79
2022/12/15 09:06:15;;;;;;;73.50;35.70;;;;;;;;;;5002600;28;20289;-79
2022/12/15 09:08:42;;;;;;;81.27;37.00;;;;;;;;;;5013883;28;20266;-79
2022/12/15 09:11:08;;;;;;;75.50;34.67;;;;;;;;;;4998184;28;20285;-79
2022/12/15 09:13:34;;;;;;;75.00;35.23;;;;;;;;;;5000064;28;20272;-78
2022/12/15 09:16:01;;;;;;;75.20;35.13;;;;;;;;;;5002197;28;20678;-79
2022/12/15 09:18:30;;;;;;;67.83;34.13;;;;;;;;;;5000670;28;20328;-78
2022/12/15 09:21:00;;;;;;;76.20;34.67;;;;;;;;;;4997138;28;20433;-79
2022/12/15 09:23:28;;;;;;;72.03;33.97;;;;;;;;;;5008717;28;20717;-78
2022/12/15 09:26:05;;;;;;;72.73;33.80;;;;;;;;;;4998523;28;20284;-79
2022/12/15 09:28:31;;;;;;;80.77;36.17;;;;;;;;;;4997344;28;20265;-79
2022/12/15 09:31:04;;;;;;;74.67;36.17;;;;;;;;;;4997274;28;20718;-77
2022/12/15 09:33:30;;;;;;;68.43;27.58;;;;;;;;;;4998331;28;20277;-79
2022/12/15 09:35:56;;;;;;;78.63;36.47;;;;;;;;;;5014686;28;20030;-79
2022/12/15 09:38:22;;;;;;;82.10;35.40;;;;;;;;;;5001377;28;20575;-79
2022/12/15 09:40:48;;;;;;;79.33;37.27;;;;;;;;;;4997006;28;20292;-79
2022/12/15 09:43:16;;;;;;;82.00;36.80;;;;;;;;;;4997300;28;20703;-79
2022/12/15 09:45:45;;;;;;;84.03;36.20;;;;;;;;;;4998015;28;20275;-78
2022/12/15 09:48:17;;;;;;;73.90;35.77;;;;;;;;;;4996544;28;20265;-79
2022/12/15 09:50:46;;;;;;;74.30;34.13;;;;;;;;;;5001737;28;20257;-78
2022/12/15 09:53:14;;;;;;;76.70;35.83;;;;;;;;;;4997121;28;20057;-79
2022/12/15 09:55:42;;;;;;;82.53;37.87;;;;;;;;;;4997948;28;20285;-79
2022/12/15 09:58:26;;;;;;;78.80;36.07;;;;;;;;;;5008501;28;20285;-78
2022/12/15 10:00:56;;;;;;;81.27;37.40;;;;;;;;;;4997542;28;20277;-79
2022/12/15 10:03:37;;;;;;;71.63;34.40;;;;;;;;;;5012819;28;20262;-78
2022/12/15 10:06:10;;;;;;;79.93;35.57;;;;;;;;;;4998009;28;20270;-79
2022/12/15 10:08:44;;;;;;;69.77;35.13;;;;;;;;;;4994962;28;20694;-79
2022/12/15 10:11:21;;;;;;;79.13;37.03;;;;;;;;;;4996165;28;20273;-78
2022/12/15 10:14:11;;;;;;;83.07;37.43;;;;;;;;;;4996512;28;20262;-79
2022/12/15 10:16:49;;;;;;;81.60;36.87;;;;;;;;;;5000569;28;20286;-79
2022/12/15 10:19:34;;;;;;;82.20;37.70;;;;;;;;;;5012525;28;20292;-80
2022/12/15 10:22:00;;;;;;;98.33;44.20;;;;;;;;;;4996782;28;20270;-78
2022/12/15 10:24:29;;;;;;;88.10;43.57;;;;;;;;;;4999169;28;20266;-79
2022/12/15 10:27:07;;;;;;;85.27;39.43;;;;;;;;;;4996957;28;20331;-79
2022/12/15 10:29:36;;;;;;;78.53;38.27;;;;;;;;;;4998768;28;20262;-79
2022/12/15 10:32:15;;;;;;;74.20;37.67;;;;;;;;;;5003989;28;20257;-79
2022/12/15 10:34:45;;;;;;;76.27;38.83;;;;;;;;;;5012442;28;20731;-77
2022/12/15 10:37:19;;;;;;;76.37;37.57;;;;;;;;;;4996167;28;20277;-78
2022/12/15 10:39:47;;;;;;;74.43;36.17;;;;;;;;;;4996037;28;20272;-78
2022/12/15 10:42:22;;;;;;;71.97;35.13;;;;;;;;;;5001114;28;20587;-79
2022/12/15 10:44:52;;;;;;;70.57;35.97;;;;;;;;;;5013307;28;20314;-79
2022/12/15 10:47:24;;;;;;;71.23;35.13;;;;;;;;;;4996108;28;20300;-79
2022/12/15 10:49:51;;;;;;;76.28;36.42;;;;;;;;;;4997617;28;20282;-78
2022/12/15 10:52:23;;;;;;;76.53;37.33;;;;;;;;;;4996778;28;20041;-79
2022/12/15 10:54:50;;;;;;;72.45;35.88;;;;;;;;;;4995821;28;20265;-78
2022/12/15 10:57:16;;;;;;;79.27;36.57;;;;;;;;;;4996157;28;20026;-80
2022/12/15 10:59:42;;;;;;;76.07;37.20;;;;;;;;;;4996028;28;20269;-79
2022/12/15 11:02:22;;;;;;;72.43;35.43;;;;;;;;;;4995951;28;20564;-79
2022/12/15 11:05:07;;;;;;;83.23;39.13;;;;;;;;;;4995838;28;20625;-78
2022/12/15 11:07:40;;;;;;;71.97;35.00;;;;;;;;;;4992460;28;20304;-79
2022/12/15 11:10:19;;;;;;;81.43;36.67;;;;;;;;;;4999944;28;20273;-79
2022/12/15 11:12:53;;;;;;;80.23;39.17;;;;;;;;;;5008232;28;20265;-78
2022/12/15 11:15:23;;;;;;;79.73;37.83;;;;;;;;;;4993689;28;20305;-77
2022/12/15 11:17:55;;;;;;;82.77;39.73;;;;;;;;;;4994580;28;20273;-78
2022/12/15 11:20:22;;;;;;;83.63;41.03;;;;;;;;;;4990957;28;20317;-78
2022/12/15 11:22:55;;;;;;;86.63;40.70;;;;;;;;;;5004564;28;20034;-77
2022/12/15 11:25:23;;;;;;;;;;;;;;;;;;4994947;28;20270;-78
2022/12/15 11:27:51;;;;;;;89.93;41.47;;;;;;;;;;5005641;28;19925;-78
2022/12/15 11:30:19;;;;;;;84.27;40.73;;;;;;;;;;4990807;28;20309;-79
2022/12/15 11:32:54;;;;;;;92.90;43.30;;;;;;;;;;4990398;28;20296;-78
2022/12/15 11:35:38;;;;;;;91.50;41.80;;;;;;;;;;5007377;28;20290;-78
2022/12/15 11:38:24;;;;;;;89.80;41.83;;;;;;;;;;4989681;28;20368;-79
2022/12/15 11:40:50;;;;;;;85.97;41.30;;;;;;;;;;4988647;28;20302;-78
2022/12/15 11:43:23;;;;;;;82.03;39.63;;;;;;;;;;4991856;28;20282;-78
2022/12/15 11:46:08;;;;;;;61.10;30.55;;;;;;;;;;4989581;28;20278;-78
2022/12/15 11:48:42;;;;;;;81.37;39.33;;;;;;;;;;5009052;28;20060;-78
2022/12/15 11:51:08;;;;;;;83.73;39.93;;;;;;;;;;4999112;28;20596;-76
2022/12/15 11:53:53;;;;;;;79.90;39.57;;;;;;;;;;4989143;28;20281;-78
2022/12/15 11:56:20;;;;;;;76.93;38.87;;;;;;;;;;5005192;28;20329;-78
2022/12/15 11:58:58;;;;;;;72.90;38.20;;;;;;;;;;4990889;28;20277;-79
2022/12/15 12:01:27;;;;;;;74.93;37.83;;;;;;;;;;5006539;28;20743;-78
2022/12/15 12:04:02;;;;;;;79.27;38.67;;;;;;;;;;5005750;28;20277;-79
2022/12/15 12:06:28;;;;;;;74.27;37.50;;;;;;;;;;4989580;28;20277;-77
2022/12/15 12:08:57;;;;;;;78.43;39.03;;;;;;;;;;4988514;28;20309;-77
2022/12/15 12:11:23;;;;;;;74.20;36.90;;;;;;;;;;4992779;28;20281;-78
2022/12/15 12:14:03;;;;;;;72.93;37.23;;;;;;;;;;4990298;28;20807;-78
2022/12/15 12:16:47;;;;;;;74.47;37.70;;;;;;;;;;4990870;28;20290;-78
2022/12/15 12:19:20;;;;;;;75.93;38.93;;;;;;;;;;5007814;28;20273;-77
2022/12/15 12:21:47;;;;;;;80.27;40.70;;;;;;;;;;4990025;28;20269;-78
2022/12/15 12:24:25;;;;;;;70.00;37.00;;;;;;;;;;4989309;28;20270;-78
2022/12/15 12:26:54;;;;;;;71.00;34.80;;;;;;;;;;5001755;28;20474;-78
2022/12/15 12:29:39;;;;;;;72.93;36.00;;;;;;;;;;5006635;28;20269;-78
2022/12/15 12:32:06;;;;;;;70.47;35.03;;;;;;;;;;4992319;28;20311;-78
2022/12/15 12:34:39;;;;;;;77.70;36.83;;;;;;;;;;5005552;28;20282;-78
2022/12/15 12:37:16;;;;;;;80.73;37.93;;;;;;;;;;4991883;28;20372;-78
2022/12/15 12:39:42;;;;;;;81.10;37.80;;;;;;;;;;4996898;28;21958;-79
2022/12/15 12:42:25;;;;;;;85.33;39.80;;;;;;;;;;4992536;28;20277;-77
2022/12/15 12:44:51;;;;;;;73.18;32.88;;;;;;;;;;4991663;28;20296;-78
2022/12/15 12:47:22;;;;;;;81.83;39.90;;;;;;;;;;4990400;28;20041;-78
2022/12/15 12:49:52;;;;;;;77.90;38.30;;;;;;;;;;4991182;28;20277;-78
2022/12/15 12:52:23;;;;;;;80.53;38.73;;;;;;;;;;4991371;28;20288;-77
2022/12/15 12:54:53;;;;;;;87.23;41.73;;;;;;;;;;5010068;28;20281;-78
2022/12/15 12:57:19;;;;;;;76.67;39.80;;;;;;;;;;5008286;28;20290;-78
2022/12/15 12:59:48;;;;;;;82.30;41.97;;;;;;;;;;5003824;28;20282;-78
2022/12/15 13:02:14;;;;;;;105.80;57.47;;;;;;;;;;4988575;28;20278;-77
2022/12/15 13:04:50;;;;;;;79.50;46.00;;;;;;;;;;5002800;28;20344;-78
2022/12/15 13:07:31;;;;;;;83.43;38.70;;;;;;;;;;4992721;28;20297;-79
2022/12/15 13:10:17;;;;;;;67.47;35.43;;;;;;;;;;4999925;28;20361;-78
2022/12/15 13:12:47;;;;;;;74.30;38.43;;;;;;;;;;5003188;28;20273;-79
2022/12/15 13:15:18;;;;;;;70.10;37.53;;;;;;;;;;5004275;28;20284;-79
2022/12/15 13:17:49;;;;;;;75.83;36.10;;;;;;;;;;4990605;28;20301;-80
2022/12/15 13:20:17;;;;;;;77.50;37.73;;;;;;;;;;4998744;28;20332;-78
2022/12/15 13:22:46;;;;;;;98.00;37.13;;;;;;;;;;5013666;28;20270;-79
2022/12/15 13:25:24;;;;;;;73.67;35.57;;;;;;;;;;5010677;28;20275;-77
2022/12/15 13:27:51;;;;;;;73.47;36.93;;;;;;;;;;4998611;28;20261;-79
2022/12/15 13:30:20;;;;;;;70.93;36.23;;;;;;;;;;4996240;28;20284;-78
2022/12/15 13:32:47;;;;;;;72.90;36.47;;;;;;;;;;4997248;28;20389;-80
2022/12/15 13:35:13;;;;;;;67.07;33.97;;;;;;;;;;4997835;28;20265;-80
2022/12/15 13:37:42;;;;;;;62.07;33.80;;;;;;;;;;4997177;28;20273;-79
2022/12/15 13:40:25;;;;;;;66.10;34.67;;;;;;;;;;4997568;28;20599;-79
2022/12/15 13:42:58;;;;;;;76.45;39.08;;;;;;;;;;4998510;28;20270;-78
2022/12/15 13:45:39;;;;;;;65.33;32.33;;;;;;;;;;5009575;28;20046;-79
2022/12/15 13:48:12;;;;;;;60.73;31.73;;;;;;;;;;4988802;28;20261;-78
2022/12/15 13:50:48;;;;;;;58.75;31.50;;;;;;;;;;4997365;28;20602;-79
2022/12/15 13:53:18;;;;;;;57.63;32.63;;;;;;;;;;4984798;28;20069;-79
2022/12/15 13:56:16;;;;;;;54.67;30.10;;;;;;;;;;4997099;28;20281;-78
2022/12/15 13:58:48;;;;;;;85.43;40.13;;;;;;;;;;4960603;28;20331;-78
2022/12/15 14:01:18;;;;;;;81.73;38.27;;;;;;;;;;4996841;28;20261;-79
2022/12/15 14:04:04;;;;;;;64.57;34.43;;;;;;;;;;4996993;28;20273;-78
2022/12/15 14:06:39;;;;;;;64.80;32.47;;;;;;;;;;4997033;28;20322;-79
2022/12/15 14:09:06;;;;;;;54.53;29.77;;;;;;;;;;5009199;28;20360;-78
2022/12/15 14:11:34;;;;;;;59.80;33.87;;;;;;;;;;4997837;28;20266;-78
2022/12/15 14:14:01;;;;;;;81.07;43.37;;;;;;;;;;4997182;28;20276;-79
2022/12/15 14:16:30;;;;;;;71.23;35.13;;;;;;;;;;5000168;28;20305;-80
2022/12/15 14:19:23;;;;;;;60.40;33.20;;;;;;;;;;4999571;28;20611;-79
2022/12/15 14:21:56;;;;;;;56.40;32.00;;;;;;;;;;4989201;28;20277;-79
2022/12/15 14:24:24;;;;;;;57.37;30.80;;;;;;;;;;4994888;28;20033;-80
2022/12/15 14:26:50;;;;;;;63.07;34.50;;;;;;;;;;5005021;28;20275;-80
2022/12/15 14:29:16;;;;;;;61.43;33.30;;;;;;;;;;4997593;28;20266;-80
2022/12/15 14:31:46;;;;;;;66.00;33.50;;;;;;;;;;5008732;28;20268;-79
2022/12/15 14:34:18;;;;;;;56.83;29.97;;;;;;;;;;4999045;28;20304;-79
2022/12/15 14:36:44;;;;;;;54.03;32.73;;;;;;;;;;4996982;28;20296;-78
2022/12/15 14:39:17;;;;;;;57.20;31.10;;;;;;;;;;4997533;28;20265;-79
2022/12/15 14:41:45;;;;;;;53.08;29.50;;;;;;;;;;4997453;28;20598;-80
2022/12/15 14:44:30;;;;;;;62.73;31.53;;;;;;;;;;4997180;28;20026;-79
2022/12/15 14:46:56;;;;;;;53.80;30.40;;;;;;;;;;4999597;28;20297;-80
2022/12/15 14:49:25;;;;;;;51.13;29.20;;;;;;;;;;4999597;28;20249;-79
2022/12/15 14:51:52;;;;;;;50.57;28.53;;;;;;;;;;5008144;28;20273;-78
2022/12/15 14:54:31;;;;;;;53.20;28.03;;;;;;;;;;5010824;28;20598;-79
2022/12/15 14:57:03;;;;;;;50.83;28.83;;;;;;;;;;4995818;28;20285;-78
2022/12/15 14:59:31;;;;;;;58.50;28.75;;;;;;;;;;5015185;28;20254;-79
2022/12/15 15:02:01;;;;;;;56.40;29.83;;;;;;;;;;4997531;28;20022;-80
2022/12/15 15:04:31;;;;;;;61.27;32.03;;;;;;;;;;4996502;28;20242;-78
2022/12/15 15:06:59;;;;;;;61.30;31.37;;;;;;;;;;4997490;28;20328;-80
2022/12/15 15:09:26;;;;;;;60.53;31.70;;;;;;;;;;5006307;28;20274;-79
2022/12/15 15:11:59;;;;;;;68.40;31.50;;;;;;;;;;4995700;28;20300;-79
2022/12/15 15:14:27;;;;;;;71.05;33.92;;;;;;;;;;5005676;28;20294;-80
2022/12/15 15:17:11;;;;;;;63.90;32.70;;;;;;;;;;5000805;28;20026;-80
2022/12/15 15:19:38;;;;;;;66.53;32.93;;;;;;;;;;4994969;28;20281;-79
2022/12/15 15:22:04;;;;;;;64.70;32.93;;;;;;;;;;4998025;28;20347;-79
2022/12/15 15:24:34;;;;;;;67.57;33.47;;;;;;;;;;4997734;28;20253;-80
2022/12/15 15:27:19;;;;;;;66.73;33.67;;;;;;;;;;4996079;28;20258;-79
2022/12/15 15:29:45;;;;;;;74.90;36.67;;;;;;;;;;5003731;28;20256;-78
2022/12/15 15:32:19;;;;;;;74.20;36.03;;;;;;;;;;5011614;28;20265;-80
2022/12/15 15:34:48;;;;;;;74.17;35.00;;;;;;;;;;4996268;28;20619;-79
2022/12/15 15:37:23;;;;;;;71.67;33.73;;;;;;;;;;5008763;28;20462;-80
2022/12/15 15:39:50;;;;;;;72.10;35.17;;;;;;;;;;4994930;28;20340;-79
2022/12/15 15:42:16;;;;;;;78.07;35.03;;;;;;;;;;4995819;28;20269;-80
2022/12/15 15:44:42;;;;;;;72.83;35.53;;;;;;;;;;4995178;28;20266;-80
2022/12/15 15:47:28;;;;;;;76.67;36.23;;;;;;;;;;5001791;28;20280;-80
2022/12/15 15:49:57;;;;;;;70.17;34.33;;;;;;;;;;4994826;28;20266;-77
2022/12/15 15:52:28;;;;;;;87.47;37.63;;;;;;;;;;4996538;28;20345;-80
2022/12/15 15:54:54;;;;;;;80.33;36.87;;;;;;;;;;4999600;28;20284;-80
2022/12/15 15:57:20;;;;;;;78.78;36.30;;;;;;;;;;4998480;28;20309;-79
2022/12/15 15:59:46;;;;;;;86.73;38.10;;;;;;;;;;4998924;28;20031;-80
2022/12/15 16:02:13;;;;;;;80.57;37.87;;;;;;;;;;4999568;28;20276;-79
2022/12/15 16:04:43;;;;;;;82.88;37.67;;;;;;;;;;5015980;28;20273;-79
2022/12/15 16:07:22;;;;;;;85.07;37.97;;;;;;;;;;4998301;28;20038;-79
2022/12/15 16:09:57;;;;;;;82.60;36.85;;;;;;;;;;5005029;28;20273;-80
2022/12/15 16:12:28;;;;;;;97.07;41.88;;;;;;;;;;4998493;28;20065;-79
2022/12/15 16:14:54;;;;;;;97.53;43.67;;;;;;;;;;5014756;28;20074;-79
2022/12/15 16:17:24;;;;;;;86.63;38.50;;;;;;;;;;4997838;28;20031;-79
2022/12/15 16:19:52;;;;;;;90.57;39.97;;;;;;;;;;4998986;28;20018;-79
2022/12/15 16:22:21;;;;;;;101.07;42.28;;;;;;;;;;4997899;28;20113;-80
2022/12/15 16:24:47;;;;;;;113.43;47.33;;;;;;;;;;4998408;28;20034;-80
2022/12/15 16:27:16;;;;;;;90.75;39.75;;;;;;;;;;5000800;28;20093;-79
2022/12/15 16:29:42;;;;;;;99.63;40.28;;;;;;;;;;5007224;28;20451;-79
2022/12/15 16:32:10;;;;;;;95.53;42.63;;;;;;;;;;4997844;28;20399;-79
2022/12/15 16:34:36;;;;;;;88.20;39.08;;;;;;;;;;4994783;28;20035;-80
2022/12/15 16:37:02;;;;;;;102.85;42.25;;;;;;;;;;4998584;28;20145;-79
2022/12/15 16:39:31;;;;;;;99.55;40.55;;;;;;;;;;5011568;28;20018;-80
2022/12/15 16:41:57;;;;;;;89.10;40.28;;;;;;;;;;5000710;28;20023;-79
2022/12/15 16:44:25;;;;;;;93.85;39.17;;;;;;;;;;5014437;28;20046;-79
2022/12/15 16:46:51;;;;;;;87.07;38.17;;;;;;;;;;5001346;28;20065;-78
2022/12/15 16:49:19;;;;;;;86.47;39.97;;;;;;;;;;5011605;28;20061;-80
2022/12/15 16:51:50;;;;;;;83.65;40.65;;;;;;;;;;4997235;28;20293;-78
2022/12/15 16:54:17;;;;;;;85.20;38.70;;;;;;;;;;4997109;28;20045;-79
2022/12/15 16:56:43;;;;;;;90.00;40.50;;;;;;;;;;4998089;28;20038;-80
2022/12/15 16:59:16;;;;;;;97.47;41.53;;;;;;;;;;4998205;28;20035;-79
2022/12/15 17:01:43;;;;;;;90.82;40.10;;;;;;;;;;4998798;28;20018;-79
2022/12/15 17:04:09;;;;;;;88.25;38.63;;;;;;;;;;5012043;28;20475;-80